Time;durP1;ratioP1;P1;durP2;ratioP2;P2;SDS_P1;SDS_P2;PMS_P1;PMS_P2;Temp;Humidity;BMP_temperature;BMP_pressure;BME280_temperature;BME280_humidity;BME280_pressure;Samples;Min_cycle;Max_cycle;Signal;HPM_P1;HPM_P2
2021/09/21 00:02:17;;;;;;;1.02;0.93;;;11.10;77.30;;;;;;5098212;28;20518;-79
2021/09/21 00:04:43;;;;;;;0.43;0.32;;;11.10;77.50;;;;;;5116941;28;20058;-79
2021/09/21 00:07:09;;;;;;;0.40;0.40;;;11.00;77.40;;;;;;5116993;28;20030;-81
2021/09/21 00:09:34;;;;;;;0.63;0.47;;;11.10;77.60;;;;;;5132548;27;20040;-80
2021/09/21 00:12:00;;;;;;;0.57;0.50;;;11.00;77.50;;;;;;5116783;28;20452;-80
2021/09/21 00:14:25;;;;;;;0.82;0.70;;;11.00;77.60;;;;;;5132480;27;20491;-80
2021/09/21 00:16:51;;;;;;;0.70;0.70;;;11.00;77.60;;;;;;5116149;28;20471;-80
2021/09/21 00:19:16;;;;;;;0.55;0.55;;;10.90;77.60;;;;;;5116609;28;20028;-80
2021/09/21 00:21:42;;;;;;;0.73;0.73;;;10.90;77.80;;;;;;5116772;28;20495;-80
2021/09/21 00:24:08;;;;;;;0.57;0.57;;;10.80;77.80;;;;;;5116592;28;20388;-80
2021/09/21 00:26:33;;;;;;;1.13;1.02;;;10.70;78.00;;;;;;5115660;28;20023;-80
2021/09/21 00:29:00;;;;;;;0.93;0.93;;;10.70;78.10;;;;;;5116454;28;20027;-79
2021/09/21 00:31:31;;;;;;;0.80;0.80;;;10.60;78.20;;;;;;5115886;28;20082;-79
2021/09/21 00:34:07;;;;;;;1.23;0.95;;;10.50;78.30;;;;;;5116669;28;20024;-80
2021/09/21 00:36:38;;;;;;;0.80;0.80;;;10.50;78.30;;;;;;5116520;28;20047;-80
2021/09/21 00:39:06;;;;;;;0.70;0.70;;;10.50;78.40;;;;;;5116143;28;20046;-80
2021/09/21 00:41:36;;;;;;;1.38;0.80;;;10.40;78.50;;;;;;5116136;28;20494;-79
2021/09/21 00:44:03;;;;;;;0.60;0.60;;;10.40;79.10;;;;;;5115825;28;20024;-80
2021/09/21 00:46:28;;;;;;;0.93;0.93;;;10.40;78.40;;;;;;5116114;28;20047;-79
2021/09/21 00:48:54;;;;;;;0.63;0.63;;;10.40;78.30;;;;;;5097758;28;20476;-79
2021/09/21 00:51:21;;;;;;;1.58;0.80;;;10.50;78.40;;;;;;5115822;28;20027;-80
2021/09/21 01:00:30;;;;;;;1.20;0.98;;;10.40;78.20;;;;;;5115468;28;20114;-79
2021/09/21 01:02:56;;;;;;;0.68;0.68;;;10.40;78.40;;;;;;5115861;28;20452;-80
2021/09/21 01:05:21;;;;;;;0.82;0.82;;;10.40;78.40;;;;;;5115965;28;20031;-80
2021/09/21 01:07:47;;;;;;;0.60;0.60;;;10.40;78.40;;;;;;5115768;28;20012;-79
2021/09/21 01:10:17;;;;;;;0.93;0.60;;;10.40;78.50;;;;;;5115428;28;20050;-81
2021/09/21 01:20:10;;;;;;;0.88;0.77;;;10.30;78.30;;;;;;5116025;28;20051;-80
2021/09/21 01:22:36;;;;;;;0.63;0.63;;;10.30;78.40;;;;;;5097044;28;20027;-80
2021/09/21 01:25:03;;;;;;;0.70;0.70;;;10.20;78.60;;;;;;5097023;28;20024;-80
2021/09/21 01:27:29;;;;;;;1.17;1.05;;;10.10;78.70;;;;;;5114718;28;20034;-80
2021/09/21 01:29:55;;;;;;;0.68;0.68;;;10.10;78.80;;;;;;5115373;28;20016;-79
2021/09/21 01:32:21;;;;;;;0.82;0.82;;;10.10;78.80;;;;;;5115241;28;20023;-79
2021/09/21 01:34:47;;;;;;;1.27;0.77;;;10.00;78.80;;;;;;5115045;28;20023;-79
2021/09/21 01:37:13;;;;;;;1.20;0.75;;;10.00;78.90;;;;;;5114018;28;20030;-80
2021/09/21 01:39:41;;;;;;;0.65;0.65;;;10.00;78.90;;;;;;5115076;28;20039;-80
2021/09/21 01:42:08;;;;;;;1.40;1.08;;;10.00;78.90;;;;;;5096128;28;20110;-80
2021/09/21 01:44:37;;;;;;;1.00;0.90;;;10.00;79.00;;;;;;5115011;28;20027;-80
2021/09/21 01:47:04;;;;;;;0.97;0.90;;;10.00;79.00;;;;;;5114977;28;20015;-79
2021/09/21 01:49:48;;;;;;;0.80;0.80;;;10.00;79.00;;;;;;5096400;28;20484;-78
2021/09/21 01:52:17;;;;;;;1.02;0.93;;;10.00;79.00;;;;;;5114916;28;20112;-79
2021/09/21 02:00:24;;;;;;;0.55;0.55;;;10.00;79.10;;;;;;5051997;28;20033;-79
2021/09/21 02:02:50;;;;;;;1.02;0.90;;;10.00;78.90;;;;;;5035275;28;20029;-80
2021/09/21 02:05:16;;;;;;;1.23;1.00;;;10.00;78.90;;;;;;5051924;28;20033;-80
2021/09/21 02:07:42;;;;;;;0.65;0.65;;;10.10;79.00;;;;;;5051842;28;20052;-80
2021/09/21 02:10:08;;;;;;;0.70;0.70;;;10.10;79.00;;;;;;5051720;28;20481;-79
2021/09/21 02:12:33;;;;;;;0.75;0.75;;;10.10;78.90;;;;;;5051251;28;20044;-79
2021/09/21 02:15:00;;;;;;;0.73;0.60;;;10.10;78.90;;;;;;5051852;28;20405;-79
2021/09/21 02:17:27;;;;;;;0.68;0.68;;;10.10;79.00;;;;;;5051707;28;20043;-79
2021/09/21 02:19:52;;;;;;;0.85;0.82;;;10.20;79.00;;;;;;5051587;28;20442;-79
2021/09/21 02:22:18;;;;;;;0.75;0.60;;;10.20;78.90;;;;;;5051586;28;20115;-80
2021/09/21 02:24:44;;;;;;;0.93;0.70;;;10.20;79.00;;;;;;5051660;28;20029;-80
2021/09/21 02:27:09;;;;;;;1.77;1.15;;;10.20;79.00;;;;;;5050961;28;20477;-80
2021/09/21 02:29:35;;;;;;;0.63;0.60;;;10.20;79.70;;;;;;5051549;28;20041;-81
2021/09/21 02:32:00;;;;;;;1.20;0.70;;;10.20;79.10;;;;;;5034679;28;20025;-80
2021/09/21 02:34:26;;;;;;;1.27;0.52;;;10.20;79.10;;;;;;5051360;28;20078;-79
2021/09/21 02:36:51;;;;;;;1.15;0.95;;;10.20;79.10;;;;;;5105558;28;20039;-80
2021/09/21 02:39:17;;;;;;;0.98;0.85;;;10.20;79.10;;;;;;5114040;28;20039;-80
2021/09/21 02:41:42;;;;;;;1.20;1.00;;;10.20;79.10;;;;;;5113398;28;20145;-79
2021/09/21 02:44:08;;;;;;;1.02;0.80;;;10.20;79.00;;;;;;5113851;28;20027;-79
2021/09/21 02:46:33;;;;;;;0.68;0.68;;;10.20;79.10;;;;;;5113908;28;20019;-80
2021/09/21 02:48:59;;;;;;;1.23;0.80;;;10.30;79.20;;;;;;5113507;28;20064;-80
2021/09/21 02:51:24;;;;;;;1.50;0.90;;;10.20;79.20;;;;;;5095658;28;20106;-79
2021/09/21 02:53:50;;;;;;;1.17;0.82;;;10.20;79.20;;;;;;5113774;28;20486;-79
2021/09/21 02:56:15;;;;;;;0.85;0.80;;;10.20;79.40;;;;;;5113227;28;20068;-80
2021/09/21 02:58:42;;;;;;;0.63;0.63;;;10.20;79.40;;;;;;5113686;28;20426;-80
2021/09/21 03:01:07;;;;;;;0.70;0.70;;;10.20;79.40;;;;;;5113757;28;20106;-80
2021/09/21 03:03:41;;;;;;;1.02;0.70;;;10.20;79.40;;;;;;5113733;28;20020;-80
2021/09/21 03:06:10;;;;;;;0.75;0.75;;;10.20;79.50;;;;;;5113554;28;20024;-80
2021/09/21 03:08:37;;;;;;;0.88;0.80;;;10.10;79.50;;;;;;5113890;28;20016;-80
2021/09/21 03:11:11;;;;;;;1.42;0.88;;;10.10;79.60;;;;;;5112810;28;20039;-79
2021/09/21 03:19:12;;;;;;;0.75;0.75;;;10.00;80.50;;;;;;5113593;28;20050;-79
2021/09/21 03:21:38;;;;;;;1.60;1.02;;;10.00;79.90;;;;;;5129367;28;20015;-79
2021/09/21 03:24:07;;;;;;;1.05;0.95;;;10.00;79.90;;;;;;5112863;28;20468;-80
2021/09/21 03:26:32;;;;;;;0.80;0.80;;;9.90;79.90;;;;;;5113602;28;20500;-80
2021/09/21 03:28:58;;;;;;;1.38;1.13;;;9.90;79.90;;;;;;5113622;28;20303;-80
2021/09/21 03:31:23;;;;;;;1.15;0.90;;;9.90;80.00;;;;;;5129300;28;20380;-80
2021/09/21 03:33:49;;;;;;;1.35;1.10;;;9.90;80.10;;;;;;5113427;28;20039;-79
2021/09/21 03:36:14;;;;;;;1.20;1.10;;;9.90;80.10;;;;;;5113243;28;20027;-79
2021/09/21 03:38:40;;;;;;;1.83;1.30;;;9.90;80.20;;;;;;5094549;28;20034;-79
2021/09/21 03:41:05;;;;;;;1.08;0.90;;;9.90;80.20;;;;;;5113318;28;20027;-79
2021/09/21 03:43:31;;;;;;;0.95;0.90;;;9.90;80.10;;;;;;5094928;28;20027;-79
2021/09/21 03:45:56;;;;;;;0.93;0.77;;;9.90;80.00;;;;;;5113238;28;20024;-79
2021/09/21 03:48:22;;;;;;;1.42;1.20;;;9.90;80.00;;;;;;5113220;28;20077;-79
2021/09/21 03:50:47;;;;;;;0.80;0.73;;;9.90;80.00;;;;;;5113252;28;20056;-79
2021/09/21 03:53:13;;;;;;;1.38;1.08;;;9.90;80.10;;;;;;5112589;28;20024;-79
2021/09/21 03:55:38;;;;;;;1.45;1.10;;;9.90;80.20;;;;;;5113179;28;20068;-79
2021/09/21 03:58:06;;;;;;;1.33;1.15;;;9.80;80.10;;;;;;5113032;28;20028;-79
2021/09/21 04:00:32;;;;;;;1.70;1.50;;;9.90;80.20;;;;;;5129853;27;20024;-78
2021/09/21 04:02:57;;;;;;;2.53;2.00;;;9.90;80.30;;;;;;5117154;28;20028;-81
2021/09/21 04:05:23;;;;;;;1.23;1.10;;;9.90;80.30;;;;;;5117074;28;20065;-79
2021/09/21 04:07:50;;;;;;;1.27;0.90;;;9.90;80.30;;;;;;5116720;28;20024;-79
2021/09/21 04:10:15;;;;;;;1.10;1.00;;;9.90;80.20;;;;;;5116657;28;20032;-80
2021/09/21 04:12:41;;;;;;;1.42;1.20;;;10.00;80.20;;;;;;5117141;28;20042;-79
2021/09/21 04:15:07;;;;;;;1.38;1.20;;;10.00;80.10;;;;;;5116925;28;20080;-80
2021/09/21 04:17:33;;;;;;;1.17;1.08;;;10.00;80.20;;;;;;5116873;28;20372;-80
2021/09/21 04:19:58;;;;;;;1.13;1.00;;;10.00;80.30;;;;;;5116492;28;20039;-79
2021/09/21 04:22:24;;;;;;;1.27;1.10;;;10.00;80.40;;;;;;5097924;28;20035;-80
2021/09/21 04:24:49;;;;;;;1.02;1.00;;;10.00;80.30;;;;;;5116779;28;20023;-79
2021/09/21 04:27:15;;;;;;;1.50;0.88;;;10.00;80.30;;;;;;5116420;28;20023;-80
2021/09/21 04:29:41;;;;;;;1.60;1.50;;;10.00;80.40;;;;;;5116632;28;20020;-78
2021/09/21 04:32:06;;;;;;;1.08;0.90;;;9.90;80.40;;;;;;5116680;28;20031;-79
2021/09/21 04:34:32;;;;;;;1.08;0.98;;;9.90;80.50;;;;;;5098282;28;20472;-80
2021/09/21 04:36:59;;;;;;;1.10;1.00;;;9.90;80.50;;;;;;5131792;27;20046;-79
2021/09/21 04:39:25;;;;;;;2.05;1.40;;;10.00;80.60;;;;;;5116226;28;20548;-78
2021/09/21 04:41:51;;;;;;;0.77;0.77;;;10.00;80.50;;;;;;5116364;28;20020;-80
2021/09/21 04:44:17;;;;;;;1.15;1.02;;;10.00;80.50;;;;;;5116337;28;20037;-80
2021/09/21 04:46:43;;;;;;;1.52;1.20;;;10.00;80.50;;;;;;5116360;28;20012;-79
2021/09/21 04:49:08;;;;;;;1.95;1.23;;;10.00;80.60;;;;;;5116272;28;20472;-79
2021/09/21 04:51:34;;;;;;;1.15;1.05;;;10.10;80.70;;;;;;5115736;28;20027;-80
2021/09/21 04:54:00;;;;;;;1.23;1.10;;;10.20;80.60;;;;;;5097732;28;20039;-79
2021/09/21 04:56:26;;;;;;;1.67;0.85;;;10.30;80.40;;;;;;5115916;28;20019;-79
2021/09/21 04:58:51;;;;;;;0.77;0.77;;;10.40;80.30;;;;;;5115937;28;20034;-79
2021/09/21 05:01:17;;;;;;;1.20;1.10;;;10.50;80.30;;;;;;5115893;28;20015;-79
2021/09/21 05:03:42;;;;;;;1.83;1.52;;;10.50;80.20;;;;;;5115916;28;20380;-79
2021/09/21 05:06:08;;;;;;;2.13;1.25;;;10.60;80.20;;;;;;5115605;28;20491;-81
2021/09/21 05:08:33;;;;;;;1.10;0.95;;;10.70;80.20;;;;;;5115579;28;20024;-79
2021/09/21 05:10:59;;;;;;;1.60;1.23;;;10.70;80.10;;;;;;5097011;28;20055;-77
2021/09/21 05:13:24;;;;;;;1.20;0.90;;;10.80;80.20;;;;;;5115658;28;20012;-79
2021/09/21 05:15:50;;;;;;;1.52;1.13;;;10.80;80.10;;;;;;5115628;28;20035;-78
2021/09/21 05:18:15;;;;;;;3.25;1.25;;;10.90;80.10;;;;;;5115581;28;20019;-76
2021/09/21 05:20:41;;;;;;;1.23;1.13;;;10.90;80.20;;;;;;5115010;28;20044;-76
2021/09/21 05:23:06;;;;;;;1.58;1.40;;;10.90;80.20;;;;;;5115653;28;20410;-76
2021/09/21 05:25:32;;;;;;;1.83;1.20;;;11.00;80.20;;;;;;5115415;28;20023;-76
2021/09/21 05:27:58;;;;;;;3.95;1.95;;;11.10;80.20;;;;;;5115304;28;20034;-76
2021/09/21 05:30:23;;;;;;;1.23;1.13;;;11.10;80.20;;;;;;5097060;28;20016;-76
2021/09/21 05:32:49;;;;;;;1.48;1.38;;;11.10;80.20;;;;;;5115326;28;20050;-75
2021/09/21 05:35:14;;;;;;;1.27;0.90;;;11.20;80.20;;;;;;5096566;28;20110;-76
2021/09/21 05:37:40;;;;;;;1.08;0.98;;;11.20;80.10;;;;;;5115117;28;20432;-76
2021/09/21 05:40:07;;;;;;;1.17;0.90;;;11.20;80.10;;;;;;5115172;28;20046;-76
2021/09/21 05:42:34;;;;;;;1.42;1.13;;;11.30;80.10;;;;;;5115017;28;20369;-74
2021/09/21 05:44:59;;;;;;;1.30;1.20;;;11.30;80.10;;;;;;5114980;28;20020;-75
2021/09/21 05:47:25;;;;;;;1.63;1.48;;;11.40;80.10;;;;;;5115067;28;20433;-76
2021/09/21 05:49:51;;;;;;;1.77;1.20;;;11.40;80.10;;;;;;5096176;28;20557;-75
2021/09/21 05:52:16;;;;;;;1.85;1.38;;;11.40;80.10;;;;;;5096529;28;20027;-76
2021/09/21 05:54:42;;;;;;;1.38;0.95;;;11.50;80.10;;;;;;5114838;28;20024;-77
2021/09/21 05:57:07;;;;;;;0.88;0.85;;;11.50;80.00;;;;;;5114974;28;20460;-76
2021/09/21 05:59:33;;;;;;;1.58;0.90;;;11.60;80.00;;;;;;5096258;28;20484;-77
2021/09/21 06:01:58;;;;;;;1.10;0.95;;;11.70;80.00;;;;;;5114997;28;20035;-76
2021/09/21 06:04:24;;;;;;;1.42;1.10;;;11.70;79.90;;;;;;5114395;28;20024;-75
2021/09/21 06:06:49;;;;;;;1.10;0.73;;;11.80;79.90;;;;;;5114474;28;20028;-75
2021/09/21 06:09:15;;;;;;;1.30;1.20;;;11.90;79.80;;;;;;5130203;27;20081;-75
2021/09/21 06:11:40;;;;;;;0.68;0.65;;;11.90;79.70;;;;;;5114515;28;20107;-76
2021/09/21 06:14:06;;;;;;;1.27;1.00;;;12.00;79.60;;;;;;5114800;28;20419;-81
2021/09/21 06:16:32;;;;;;;0.82;0.82;;;12.20;79.50;;;;;;5130397;27;20102;-77
2021/09/21 06:18:58;;;;;;;1.10;1.00;;;12.20;79.40;;;;;;5113775;28;20468;-76
2021/09/21 06:21:25;;;;;;;0.82;0.80;;;12.30;79.30;;;;;;5114259;28;20077;-76
2021/09/21 06:23:50;;;;;;;0.73;0.63;;;12.40;79.20;;;;;;5113720;28;20028;-75
2021/09/21 06:26:16;;;;;;;1.35;1.00;;;12.50;79.10;;;;;;5114278;28;20380;-75
2021/09/21 06:28:42;;;;;;;0.82;0.82;;;12.50;79.00;;;;;;5114130;28;20433;-75
2021/09/21 06:31:07;;;;;;;1.38;0.82;;;12.60;78.90;;;;;;5114279;28;20027;-76
2021/09/21 06:33:33;;;;;;;0.85;0.82;;;12.60;78.90;;;;;;5113684;28;20027;-74
2021/09/21 06:35:59;;;;;;;0.88;0.82;;;12.70;79.10;;;;;;5095793;28;20012;-77
2021/09/21 06:38:24;;;;;;;0.85;0.80;;;12.70;79.10;;;;;;5114059;28;20353;-76
2021/09/21 06:40:50;;;;;;;0.73;0.70;;;12.80;79.10;;;;;;5114070;28;20032;-75
2021/09/21 06:43:15;;;;;;;0.57;0.52;;;12.90;79.10;;;;;;5114081;28;20016;-76
2021/09/21 06:45:41;;;;;;;0.60;0.60;;;13.10;79.10;;;;;;5114019;28;20047;-75
2021/09/21 06:48:06;;;;;;;0.85;0.77;;;13.10;78.90;;;;;;5113227;28;20066;-77
2021/09/21 06:50:32;;;;;;;1.40;1.30;;;13.20;79.50;;;;;;5113795;28;20047;-76
2021/09/21 06:52:57;;;;;;;1.10;1.00;;;13.20;78.90;;;;;;5113739;28;20102;-77
2021/09/21 06:55:23;;;;;;;1.52;1.00;;;13.30;78.90;;;;;;5129633;27;20088;-76
2021/09/21 06:57:50;;;;;;;1.10;0.85;;;13.30;78.90;;;;;;5113820;28;20066;-76
2021/09/21 07:00:16;;;;;;;1.42;0.90;;;13.40;78.90;;;;;;5113673;28;20035;-75
2021/09/21 07:02:46;;;;;;;1.30;1.10;;;13.50;78.80;;;;;;5113266;28;20088;-76
2021/09/21 07:05:11;;;;;;;1.05;0.95;;;13.50;78.80;;;;;;5113606;28;20498;-76
2021/09/21 07:07:43;;;;;;;0.40;0.40;;;13.50;78.80;;;;;;5095414;28;20028;-76
2021/09/21 07:10:08;;;;;;;0.65;0.60;;;13.60;78.80;;;;;;5095023;28;20147;-75
2021/09/21 07:12:37;;;;;;;1.48;0.98;;;13.70;78.80;;;;;;5113562;28;20103;-75
2021/09/21 07:15:03;;;;;;;0.98;0.98;;;13.70;78.70;;;;;;5113602;28;20046;-75
2021/09/21 07:17:28;;;;;;;0.93;0.88;;;13.80;78.70;;;;;;5094804;28;20465;-77
2021/09/21 07:19:54;;;;;;;0.60;0.60;;;13.90;78.70;;;;;;5113420;28;20035;-76
2021/09/21 07:22:19;;;;;;;1.45;0.90;;;14.00;78.70;;;;;;5113617;28;20038;-77
2021/09/21 07:24:45;;;;;;;1.23;0.98;;;14.00;78.60;;;;;;5113327;28;20029;-76
2021/09/21 07:27:10;;;;;;;1.25;1.15;;;14.10;78.70;;;;;;5095352;28;20464;-76
2021/09/21 07:29:36;;;;;;;0.80;0.80;;;14.20;78.70;;;;;;5129229;28;20110;-77
2021/09/21 07:32:02;;;;;;;1.30;1.15;;;14.30;78.60;;;;;;5112869;28;20055;-77
2021/09/21 07:34:29;;;;;;;1.63;0.80;;;14.30;78.50;;;;;;5095276;28;20020;-75
2021/09/21 07:36:54;;;;;;;1.13;1.02;;;14.30;78.60;;;;;;5116735;28;20016;-76
2021/09/21 07:39:20;;;;;;;0.98;0.60;;;14.30;78.70;;;;;;5117295;28;20046;-76
2021/09/21 07:41:46;;;;;;;1.10;1.00;;;14.30;78.90;;;;;;5133294;27;20161;-76
2021/09/21 07:44:11;;;;;;;0.82;0.80;;;14.30;79.00;;;;;;5099177;28;20080;-76
2021/09/21 07:46:38;;;;;;;0.75;0.73;;;14.30;79.00;;;;;;5116853;28;20020;-77
2021/09/21 07:49:03;;;;;;;0.47;0.47;;;14.30;78.90;;;;;;5117395;28;20472;-76
2021/09/21 07:51:29;;;;;;;1.00;0.90;;;14.40;78.90;;;;;;5117286;28;20030;-76
2021/09/21 07:53:54;;;;;;;0.98;0.98;;;14.40;78.80;;;;;;5117137;28;20031;-76
2021/09/21 07:56:20;;;;;;;1.13;0.82;;;14.50;78.80;;;;;;5117295;28;20064;-77
2021/09/21 07:58:45;;;;;;;1.08;0.73;;;14.50;78.80;;;;;;5098706;28;20037;-77
2021/09/21 08:01:11;;;;;;;1.23;1.10;;;14.50;78.80;;;;;;5116515;28;20015;-77
2021/09/21 08:03:37;;;;;;;0.75;0.70;;;14.60;78.80;;;;;;5117069;28;20533;-78
2021/09/21 08:06:02;;;;;;;1.45;0.80;;;14.60;78.70;;;;;;5116958;28;20047;-76
2021/09/21 08:08:28;;;;;;;0.93;0.80;;;14.70;78.60;;;;;;5116991;28;20459;-77
2021/09/21 08:10:53;;;;;;;0.50;0.40;;;14.80;78.30;;;;;;5132589;27;20048;-76
2021/09/21 08:13:19;;;;;;;0.80;0.80;;;14.90;78.10;;;;;;5098541;28;20016;-76
2021/09/21 08:15:44;;;;;;;0.50;0.30;;;14.90;78.10;;;;;;5116439;28;20467;-76
2021/09/21 08:18:10;;;;;;;0.40;0.40;;;15.00;78.00;;;;;;5116724;28;20016;-77
2021/09/21 08:20:36;;;;;;;0.52;0.43;;;15.10;77.90;;;;;;5132662;27;20161;-77
2021/09/21 08:23:02;;;;;;;0.40;0.40;;;15.10;77.90;;;;;;5116729;28;20486;-76
2021/09/21 08:25:28;;;;;;;0.63;0.40;;;15.30;77.90;;;;;;5116712;28;20562;-77
2021/09/21 08:27:54;;;;;;;0.30;0.30;;;15.30;77.50;;;;;;5115852;28;20145;-79
2021/09/21 08:30:19;;;;;;;0.40;0.40;;;15.50;77.40;;;;;;5116524;28;20098;-76
2021/09/21 08:32:46;;;;;;;0.55;0.35;;;15.60;77.30;;;;;;5116622;28;20016;-76
2021/09/21 08:35:12;;;;;;;0.38;0.38;;;15.70;77.10;;;;;;5116509;28;20128;-76
2021/09/21 08:37:38;;;;;;;0.52;0.52;;;15.80;77.00;;;;;;5116402;28;20098;-76
2021/09/21 08:40:04;;;;;;;0.47;0.47;;;15.90;76.90;;;;;;5097993;28;20119;-76
2021/09/21 08:42:30;;;;;;;0.57;0.57;;;16.00;77.00;;;;;;5115613;28;20031;-76
2021/09/21 08:44:55;;;;;;;0.20;0.20;;;15.90;77.00;;;;;;5116289;28;20444;-77
2021/09/21 08:47:21;;;;;;;0.47;0.47;;;16.00;77.10;;;;;;5115593;28;20031;-77
2021/09/21 08:49:47;;;;;;;0.77;0.70;;;16.00;77.10;;;;;;5116078;28;20028;-78
2021/09/21 08:52:13;;;;;;;0.40;0.35;;;16.10;77.10;;;;;;5116043;28;20073;-78
2021/09/21 08:54:38;;;;;;;0.40;0.40;;;16.10;77.10;;;;;;5116145;28;20023;-77
2021/09/21 08:57:05;;;;;;;0.32;0.32;;;16.30;77.00;;;;;;5115632;28;20512;-77
2021/09/21 08:59:32;;;;;;;1.45;0.70;;;16.30;76.80;;;;;;5097559;28;20035;-77
2021/09/21 09:02:08;;;;;;;0.38;0.38;;;16.40;76.70;;;;;;5115978;28;20033;-77
2021/09/21 09:04:33;;;;;;;0.50;0.50;;;16.50;76.60;;;;;;5097471;28;20106;-78
2021/09/21 09:07:00;;;;;;;0.30;0.30;;;16.60;76.40;;;;;;5115917;28;20094;-77
2021/09/21 09:09:29;;;;;;;0.60;0.50;;;16.70;76.40;;;;;;5097436;28;20028;-77
2021/09/21 09:11:57;;;;;;;0.57;0.57;;;16.70;75.80;;;;;;5115638;28;20024;-78
2021/09/21 09:14:31;;;;;;;0.40;0.40;;;16.70;76.00;;;;;;5115524;28;20015;-78
2021/09/21 09:16:59;;;;;;;0.88;0.60;;;16.70;75.90;;;;;;5097474;28;20069;-77
2021/09/21 09:19:39;;;;;;;0.20;0.20;;;16.70;75.90;;;;;;5115624;28;20032;-78
2021/09/21 09:22:12;;;;;;;0.30;0.30;;;16.70;75.70;;;;;;5115600;28;20176;-78
2021/09/21 09:24:58;;;;;;;0.40;0.40;;;16.70;75.80;;;;;;5097200;28;20495;-78
2021/09/21 09:27:38;;;;;;;0.30;0.30;;;16.70;75.70;;;;;;5114683;28;20034;-77
2021/09/21 09:30:07;;;;;;;0.30;0.30;;;16.70;75.90;;;;;;5097115;28;20110;-78
2021/09/21 09:32:48;;;;;;;0.35;0.35;;;16.70;75.80;;;;;;5115258;28;20468;-78
2021/09/21 09:35:39;;;;;;;0.50;0.30;;;16.80;75.80;;;;;;5115411;28;20051;-78
2021/09/21 09:38:11;;;;;;;1.15;0.50;;;16.80;75.60;;;;;;5115230;28;20028;-78
2021/09/21 09:40:49;;;;;;;0.15;0.15;;;16.80;75.60;;;;;;5114740;28;20498;-77
2021/09/21 09:43:17;;;;;;;0.30;0.30;;;16.90;75.50;;;;;;5115211;28;20035;-78
2021/09/21 09:45:46;;;;;;;0.45;0.45;;;16.90;75.60;;;;;;5115148;28;20026;-79
2021/09/21 09:48:17;;;;;;;0.67;0.50;;;16.90;75.50;;;;;;5096887;28;20081;-78
2021/09/21 09:50:43;;;;;;;0.38;0.38;;;17.00;75.50;;;;;;5096638;28;20318;-79
2021/09/21 09:53:12;;;;;;;0.50;0.50;;;17.00;75.30;;;;;;5096619;28;20023;-81
2021/09/21 09:55:39;;;;;;;0.67;0.50;;;17.10;75.40;;;;;;5114477;28;20020;-78
2021/09/21 09:58:08;;;;;;;0.40;0.40;;;17.10;75.40;;;;;;5095602;28;20388;-77
2021/09/21 10:00:37;;;;;;;0.20;0.20;;;17.20;75.30;;;;;;5114656;28;20027;-79
2021/09/21 10:03:03;;;;;;;0.60;0.52;;;17.20;75.20;;;;;;5096436;28;20020;-78
2021/09/21 10:05:30;;;;;;;0.38;0.38;;;17.30;75.20;;;;;;5114787;28;20030;-78
2021/09/21 10:07:57;;;;;;;0.50;0.45;;;17.30;74.90;;;;;;5096549;28;20027;-78
2021/09/21 10:10:23;;;;;;;0.82;0.45;;;17.30;74.90;;;;;;5113761;28;20435;-79
2021/09/21 10:12:49;;;;;;;0.57;0.30;;;17.30;75.00;;;;;;5114465;28;20038;-77
2021/09/21 10:15:15;;;;;;;0.20;0.20;;;17.40;75.00;;;;;;5096371;28;20126;-79
2021/09/21 10:17:53;;;;;;;0.20;0.20;;;17.40;74.90;;;;;;5130350;27;20478;-79
2021/09/21 10:20:29;;;;;;;0.22;0.22;;;17.50;74.70;;;;;;5114506;28;20023;-81
2021/09/21 10:22:56;;;;;;;0.63;0.45;;;17.50;74.70;;;;;;5114770;28;20098;-78
2021/09/21 10:25:33;;;;;;;0.50;0.30;;;17.50;74.60;;;;;;5113913;28;20106;-78
2021/09/21 10:27:59;;;;;;;1.85;0.50;;;17.50;75.20;;;;;;5114327;28;20047;-79
2021/09/21 10:30:31;;;;;;;0.35;0.35;;;17.50;74.50;;;;;;5114335;28;20051;-78
2021/09/21 10:32:58;;;;;;;0.30;0.30;;;17.50;74.40;;;;;;5114193;28;20061;-79
2021/09/21 10:35:29;;;;;;;0.55;0.55;;;17.60;74.20;;;;;;5114034;28;20023;-79
2021/09/21 10:37:57;;;;;;;0.50;0.50;;;17.60;74.30;;;;;;5095926;28;20015;-81
2021/09/21 10:40:36;;;;;;;0.20;0.20;;;17.60;74.20;;;;;;5095328;28;20392;-79
2021/09/21 10:43:03;;;;;;;0.20;0.20;;;17.70;74.00;;;;;;5113932;28;20020;-80
2021/09/21 10:45:28;;;;;;;0.20;0.20;;;17.70;74.10;;;;;;5095834;28;20026;-78
2021/09/21 10:48:03;;;;;;;0.28;0.28;;;17.80;74.10;;;;;;5095633;28;20443;-78
2021/09/21 10:50:29;;;;;;;0.30;0.30;;;17.80;73.60;;;;;;5095853;28;20533;-80
2021/09/21 10:53:06;;;;;;;0.50;0.50;;;17.90;73.40;;;;;;5113329;28;20103;-80
2021/09/21 10:55:37;;;;;;;0.40;0.40;;;17.90;73.30;;;;;;5113788;28;20031;-80
2021/09/21 10:58:06;;;;;;;0.30;0.30;;;17.80;73.40;;;;;;5113774;28;20031;-78
2021/09/21 11:00:34;;;;;;;0.57;0.55;;;17.90;73.40;;;;;;5113735;28;20058;-79
2021/09/21 11:03:01;;;;;;;0.60;0.60;;;17.90;73.20;;;;;;5129606;27;20072;-80
2021/09/21 11:05:27;;;;;;;0.40;0.32;;;17.90;73.20;;;;;;5113749;28;20027;-77
2021/09/21 11:08:02;;;;;;;0.40;0.40;;;17.90;73.20;;;;;;5113084;28;20119;-80
2021/09/21 11:10:43;;;;;;;0.68;0.60;;;17.90;73.20;;;;;;5095158;28;20043;-79
2021/09/21 11:13:14;;;;;;;0.63;0.60;;;18.00;73.10;;;;;;5095562;28;20236;-80
2021/09/21 11:15:41;;;;;;;2.60;0.80;;;18.00;73.00;;;;;;5113913;28;20030;-81
2021/09/21 11:18:12;;;;;;;0.52;0.50;;;18.10;72.90;;;;;;5113681;28;20022;-80
2021/09/21 11:20:59;;;;;;;0.70;0.68;;;18.20;72.70;;;;;;5113397;28;20035;-80
2021/09/21 11:23:27;;;;;;;0.38;0.38;;;18.30;72.70;;;;;;5094946;28;20027;-82
2021/09/21 11:25:56;;;;;;;0.38;0.38;;;18.30;72.70;;;;;;5113522;28;20456;-81
2021/09/21 11:28:22;;;;;;;0.40;0.40;;;18.40;72.70;;;;;;5113581;28;20031;-81
2021/09/21 11:30:48;;;;;;;0.60;0.57;;;18.50;72.60;;;;;;5113591;28;20020;-80
2021/09/21 11:33:20;;;;;;;0.50;0.50;;;18.50;72.50;;;;;;5113295;28;20028;-80
2021/09/21 11:35:51;;;;;;;0.30;0.30;;;18.60;72.40;;;;;;5113555;28;20028;-79
2021/09/21 11:38:17;;;;;;;0.40;0.40;;;18.70;71.90;;;;;;5112941;28;20015;-81
2021/09/21 11:40:44;;;;;;;0.50;0.32;;;18.70;72.10;;;;;;5113464;28;20027;-81
2021/09/21 11:43:11;;;;;;;0.60;0.60;;;18.80;72.00;;;;;;5095195;28;20024;-80
2021/09/21 11:45:37;;;;;;;0.40;0.40;;;18.90;71.80;;;;;;5113364;28;20016;-81
2021/09/21 11:48:04;;;;;;;0.50;0.50;;;18.90;71.90;;;;;;5113435;28;20054;-80
2021/09/21 11:50:33;;;;;;;0.40;0.40;;;19.00;71.80;;;;;;5113277;28;20373;-80
2021/09/21 11:53:01;;;;;;;0.50;0.50;;;19.00;71.50;;;;;;5094417;28;20402;-80
2021/09/21 11:55:31;;;;;;;0.52;0.40;;;19.10;71.70;;;;;;5113380;28;20040;-80
2021/09/21 11:57:57;;;;;;;0.45;0.45;;;19.10;71.60;;;;;;5113215;28;20503;-81
2021/09/21 12:00:31;;;;;;;0.77;0.73;;;19.20;71.30;;;;;;5094985;28;20023;-79
2021/09/21 12:03:06;;;;;;;0.50;0.50;;;19.10;71.20;;;;;;5113298;28;20031;-81
2021/09/21 12:05:37;;;;;;;0.45;0.40;;;19.10;71.20;;;;;;5094391;28;20458;-80
2021/09/21 12:08:06;;;;;;;0.60;0.60;;;19.20;71.10;;;;;;5113174;28;20047;-81
2021/09/21 12:10:32;;;;;;;0.65;0.65;;;19.20;71.00;;;;;;5112875;28;20522;-80
2021/09/21 12:13:16;;;;;;;0.70;0.50;;;19.40;71.10;;;;;;5113228;28;20024;-81
2021/09/21 12:15:45;;;;;;;0.40;0.40;;;19.50;70.80;;;;;;5112862;28;20031;-79
2021/09/21 12:18:13;;;;;;;0.50;0.50;;;19.60;70.70;;;;;;5113110;28;20028;-78
2021/09/21 12:20:40;;;;;;;0.63;0.40;;;19.70;70.20;;;;;;5112574;28;20032;-81
2021/09/21 12:23:08;;;;;;;0.68;0.68;;;19.60;70.30;;;;;;5116082;28;20020;-80
2021/09/21 12:25:36;;;;;;;0.40;0.40;;;19.60;70.40;;;;;;5098368;28;20349;-78
2021/09/21 12:28:04;;;;;;;1.17;0.50;;;19.70;70.40;;;;;;5116584;28;20023;-79
2021/09/21 12:30:33;;;;;;;0.35;0.32;;;19.80;70.30;;;;;;5116642;28;20186;-79
2021/09/21 12:33:02;;;;;;;0.33;0.33;;;20.00;70.20;;;;;;5116603;28;20028;-79
2021/09/21 12:35:32;;;;;;;0.32;0.32;;;20.00;69.80;;;;;;5097740;28;20789;-80
2021/09/21 12:38:03;;;;;;;0.65;0.65;;;20.00;69.90;;;;;;5116509;28;20020;-79
2021/09/21 12:40:29;;;;;;;1.05;0.80;;;19.90;69.90;;;;;;5116368;28;20466;-81
2021/09/21 12:42:55;;;;;;;0.57;0.57;;;19.80;70.30;;;;;;5116239;28;20073;-79
2021/09/21 12:45:20;;;;;;;0.38;0.35;;;19.80;70.40;;;;;;5116243;28;20027;-80
2021/09/21 12:47:48;;;;;;;0.70;0.57;;;19.90;70.20;;;;;;5098011;28;20050;-80
2021/09/21 12:50:21;;;;;;;0.40;0.40;;;20.00;70.20;;;;;;5097613;28;20084;-78
2021/09/21 12:52:54;;;;;;;0.73;0.60;;;20.00;70.00;;;;;;5116154;28;20023;-78
2021/09/21 12:55:45;;;;;;;0.50;0.50;;;20.00;69.90;;;;;;5116197;28;20048;-78
2021/09/21 12:58:13;;;;;;;1.00;0.85;;;20.00;69.90;;;;;;5114612;28;20038;-79
2021/09/21 13:00:40;;;;;;;0.65;0.65;;;20.00;69.70;;;;;;5115936;28;20032;-77
2021/09/21 13:03:07;;;;;;;0.77;0.65;;;20.00;69.60;;;;;;5116013;28;20022;-81
2021/09/21 13:05:34;;;;;;;0.43;0.43;;;20.00;69.80;;;;;;5115514;28;20032;-79
2021/09/21 13:08:00;;;;;;;0.57;0.40;;;20.20;69.60;;;;;;5115850;28;20028;-80
2021/09/21 13:10:27;;;;;;;0.52;0.52;;;20.10;69.30;;;;;;5115577;28;20047;-79
2021/09/21 13:13:04;;;;;;;0.60;0.45;;;20.00;69.20;;;;;;5097653;28;20051;-79
2021/09/21 13:15:31;;;;;;;0.70;0.70;;;19.90;69.60;;;;;;5097736;28;20376;-79